sensor_id;sensor_type;location;lat;lon;timestamp;noise_LAeq;noise_LA_min;noise_LA_max;noise_LA01;noise_LA95
73638;Laerm;53743;51.100;5.874;2023-08-12T00:00:39;55.77;28.34;71.11;;
73638;Laerm;53743;51.100;5.874;2023-08-12T00:01:41;53.23;28.65;68.01;;
73638;Laerm;53743;51.100;5.874;2023-08-12T00:02:44;37.82;28.24;51.82;;
73638;Laerm;53743;51.100;5.874;2023-08-12T00:03:46;61.65;28.58;78.41;;
73638;Laerm;53743;51.100;5.874;2023-08-12T00:04:48;30.19;28.58;34.82;;
73638;Laerm;53743;51.100;5.874;2023-08-12T00:05:50;58.63;28.97;75.05;;
73638;Laerm;53743;51.100;5.874;2023-08-12T00:06:51;30.10;28.16;42.04;;
73638;Laerm;53743;51.100;5.874;2023-08-12T00:07:53;51.17;28.40;65.27;;
73638;Laerm;53743;51.100;5.874;2023-08-12T00:08:54;30.50;28.07;37.96;;
73638;Laerm;53743;51.100;5.874;2023-08-12T00:09:57;57.35;28.11;73.39;;
73638;Laerm;53743;51.100;5.874;2023-08-12T00:11:01;30.46;28.14;39.34;;
73638;Laerm;53743;51.100;5.874;2023-08-12T00:12:03;29.79;27.98;36.03;;
73638;Laerm;53743;51.100;5.874;2023-08-12T00:13:05;30.28;28.57;34.30;;
73638;Laerm;53743;51.100;5.874;2023-08-12T00:14:07;51.35;28.41;66.25;;
73638;Laerm;53743;51.100;5.874;2023-08-12T00:15:10;58.71;29.00;71.48;;
73638;Laerm;53743;51.100;5.874;2023-08-12T00:16:11;60.89;28.57;78.32;;
73638;Laerm;53743;51.100;5.874;2023-08-12T00:17:13;30.02;28.37;41.47;;
73638;Laerm;53743;51.100;5.874;2023-08-12T00:18:14;30.13;28.41;42.24;;
73638;Laerm;53743;51.100;5.874;2023-08-12T00:19:18;29.84;28.37;39.90;;
73638;Laerm;53743;51.100;5.874;2023-08-12T00:20:19;29.93;28.44;33.58;;
73638;Laerm;53743;51.100;5.874;2023-08-12T00:21:21;57.90;28.38;73.88;;
73638;Laerm;53743;51.100;5.874;2023-08-12T00:22:22;29.95;28.13;32.60;;
73638;Laerm;53743;51.100;5.874;2023-08-12T00:23:24;31.63;28.14;53.98;;
73638;Laerm;53743;51.100;5.874;2023-08-12T00:24:26;50.63;28.24;68.39;;
73638;Laerm;53743;51.100;5.874;2023-08-12T00:25:28;50.16;29.64;69.28;;
73638;Laerm;53743;51.100;5.874;2023-08-12T00:26:30;30.95;28.81;43.93;;
73638;Laerm;53743;51.100;5.874;2023-08-12T00:27:31;61.67;28.79;78.81;;
73638;Laerm;53743;51.100;5.874;2023-08-12T00:28:34;30.38;28.63;36.50;;
73638;Laerm;53743;51.100;5.874;2023-08-12T00:29:35;56.17;28.64;72.65;;
73638;Laerm;53743;51.100;5.874;2023-08-12T00:30:37;31.24;28.58;35.91;;
73638;Laerm;53743;51.100;5.874;2023-08-12T00:31:38;54.42;28.67;69.31;;
73638;Laerm;53743;51.100;5.874;2023-08-12T00:32:40;39.33;28.44;53.86;;
73638;Laerm;53743;51.100;5.874;2023-08-12T00:33:42;30.01;28.37;32.61;;
73638;Laerm;53743;51.100;5.874;2023-08-12T00:34:43;33.25;28.48;40.86;;
73638;Laerm;53743;51.100;5.874;2023-08-12T00:35:44;57.51;31.48;73.77;;
73638;Laerm;53743;51.100;5.874;2023-08-12T00:36:46;38.13;28.68;59.66;;
73638;Laerm;53743;51.100;5.874;2023-08-12T00:37:47;30.48;28.44;36.37;;
73638;Laerm;53743;51.100;5.874;2023-08-12T00:38:49;57.68;28.51;71.83;;
73638;Laerm;53743;51.100;5.874;2023-08-12T00:39:50;59.28;28.27;74.74;;
73638;Laerm;53743;51.100;5.874;2023-08-12T00:40:54;56.20;27.99;71.72;;
73638;Laerm;53743;51.100;5.874;2023-08-12T00:41:55;33.51;28.95;43.48;;
73638;Laerm;53743;51.100;5.874;2023-08-12T00:42:56;58.52;28.88;75.32;;
73638;Laerm;53743;51.100;5.874;2023-08-12T00:43:58;30.13;28.24;40.95;;
73638;Laerm;53743;51.100;5.874;2023-08-12T00:44:59;30.47;28.30;42.38;;
73638;Laerm;53743;51.100;5.874;2023-08-12T00:46:04;30.12;28.49;36.68;;
73638;Laerm;53743;51.100;5.874;2023-08-12T00:47:07;29.92;28.35;42.10;;
73638;Laerm;53743;51.100;5.874;2023-08-12T00:48:11;58.68;28.50;75.44;;
73638;Laerm;53743;51.100;5.874;2023-08-12T00:49:13;55.99;29.33;71.98;;
73638;Laerm;53743;51.100;5.874;2023-08-12T00:50:15;34.05;28.02;46.02;;
73638;Laerm;53743;51.100;5.874;2023-08-12T00:51:17;30.64;28.25;38.06;;
73638;Laerm;53743;51.100;5.874;2023-08-12T00:52:20;31.51;28.57;41.84;;
73638;Laerm;53743;51.100;5.874;2023-08-12T00:53:21;30.23;28.67;35.54;;
73638;Laerm;53743;51.100;5.874;2023-08-12T00:54:25;29.70;28.25;34.34;;
73638;Laerm;53743;51.100;5.874;2023-08-12T00:55:27;29.63;28.07;31.66;;
73638;Laerm;53743;51.100;5.874;2023-08-12T00:56:31;29.67;27.99;32.99;;
73638;Laerm;53743;51.100;5.874;2023-08-12T00:57:34;29.64;27.76;31.81;;
73638;Laerm;53743;51.100;5.874;2023-08-12T00:58:36;55.38;29.20;69.82;;
73638;Laerm;53743;51.100;5.874;2023-08-12T00:59:38;29.87;28.40;35.55;;
73638;Laerm;53743;51.100;5.874;2023-08-12T01:00:43;54.13;28.14;71.11;;
73638;Laerm;53743;51.100;5.874;2023-08-12T01:01:44;56.79;28.65;72.87;;
73638;Laerm;53743;51.100;5.874;2023-08-12T01:02:48;54.53;28.63;71.51;;
73638;Laerm;53743;51.100;5.874;2023-08-12T01:03:50;30.38;28.26;34.82;;
73638;Laerm;53743;51.100;5.874;2023-08-12T01:04:53;30.67;28.99;39.02;;
73638;Laerm;53743;51.100;5.874;2023-08-12T01:05:55;30.13;28.29;35.66;;
73638;Laerm;53743;51.100;5.874;2023-08-12T01:06:57;50.97;28.26;66.47;;
73638;Laerm;53743;51.100;5.874;2023-08-12T01:08:01;43.77;28.14;61.11;;
73638;Laerm;53743;51.100;5.874;2023-08-12T01:09:07;36.25;28.26;49.51;;
73638;Laerm;53743;51.100;5.874;2023-08-12T01:10:09;52.84;29.11;71.17;;
73638;Laerm;53743;51.100;5.874;2023-08-12T01:11:26;29.93;28.24;39.04;;
73638;Laerm;53743;51.100;5.874;2023-08-12T01:12:37;55.25;28.39;74.72;;
73638;Laerm;53743;51.100;5.874;2023-08-12T01:13:56;52.72;28.42;72.57;;
73638;Laerm;53743;51.100;5.874;2023-08-12T01:15:08;29.85;28.20;33.42;;
73638;Laerm;53743;51.100;5.874;2023-08-12T01:16:16;35.30;28.26;41.75;;
73638;Laerm;53743;51.100;5.874;2023-08-12T01:17:20;30.36;28.16;34.49;;
73638;Laerm;53743;51.100;5.874;2023-08-12T01:18:25;29.79;28.27;34.44;;
73638;Laerm;53743;51.100;5.874;2023-08-12T01:19:34;53.52;28.25;68.12;;
73638;Laerm;53743;51.100;5.874;2023-08-12T01:20:36;31.68;28.53;44.32;;
73638;Laerm;53743;51.100;5.874;2023-08-12T01:21:44;29.69;27.93;36.68;;
73638;Laerm;53743;51.100;5.874;2023-08-12T01:22:52;29.80;27.71;35.79;;
73638;Laerm;53743;51.100;5.874;2023-08-12T01:23:58;54.21;28.50;69.44;;
73638;Laerm;53743;51.100;5.874;2023-08-12T01:25:00;36.01;28.54;46.41;;
73638;Laerm;53743;51.100;5.874;2023-08-12T01:26:01;30.21;28.27;44.52;;
73638;Laerm;53743;51.100;5.874;2023-08-12T01:27:04;29.77;27.89;42.29;;
73638;Laerm;53743;51.100;5.874;2023-08-12T01:28:06;29.75;28.20;35.23;;
73638;Laerm;53743;51.100;5.874;2023-08-12T01:29:08;30.09;28.34;35.96;;
73638;Laerm;53743;51.100;5.874;2023-08-12T01:30:10;29.68;28.28;34.80;;
73638;Laerm;53743;51.100;5.874;2023-08-12T01:31:24;29.89;28.18;32.11;;
73638;Laerm;53743;51.100;5.874;2023-08-12T01:32:38;29.79;28.08;31.98;;
73638;Laerm;53743;51.100;5.874;2023-08-12T01:33:52;29.96;28.24;35.10;;
73638;Laerm;53743;51.100;5.874;2023-08-12T01:35:06;29.84;28.15;32.40;;
73638;Laerm;53743;51.100;5.874;2023-08-12T01:36:16;29.70;28.10;38.44;;
73638;Laerm;53743;51.100;5.874;2023-08-12T01:37:26;29.54;28.11;34.94;;
73638;Laerm;53743;51.100;5.874;2023-08-12T01:38:31;29.57;27.98;35.33;;
73638;Laerm;53743;51.100;5.874;2023-08-12T01:39:39;29.79;27.85;48.67;;
73638;Laerm;53743;51.100;5.874;2023-08-12T01:40:45;29.78;28.24;34.53;;
73638;Laerm;53743;51.100;5.874;2023-08-12T01:41:48;29.67;28.15;33.20;;
73638;Laerm;53743;51.100;5.874;2023-08-12T01:42:51;29.99;28.20;37.90;;
73638;Laerm;53743;51.100;5.874;2023-08-12T01:43:53;56.27;28.81;72.27;;
73638;Laerm;53743;51.100;5.874;2023-08-12T01:44:56;30.62;28.72;35.28;;
73638;Laerm;53743;51.100;5.874;2023-08-12T01:45:59;50.08;29.00;69.80;;
73638;Laerm;53743;51.100;5.874;2023-08-12T01:47:01;54.82;28.85;72.22;;
73638;Laerm;53743;51.100;5.874;2023-08-12T01:48:04;55.72;28.65;72.24;;
73638;Laerm;53743;51.100;5.874;2023-08-12T01:49:06;43.42;28.59;58.30;;
73638;Laerm;53743;51.100;5.874;2023-08-12T01:50:08;30.22;28.14;37.89;;
73638;Laerm;53743;51.100;5.874;2023-08-12T01:51:11;30.32;28.29;32.56;;
73638;Laerm;53743;51.100;5.874;2023-08-12T01:52:12;30.17;28.61;38.34;;
73638;Laerm;53743;51.100;5.874;2023-08-12T01:53:14;30.93;28.93;38.41;;
73638;Laerm;53743;51.100;5.874;2023-08-12T01:54:16;31.25;29.37;34.96;;
73638;Laerm;53743;51.100;5.874;2023-08-12T01:55:19;40.10;28.53;58.15;;
73638;Laerm;53743;51.100;5.874;2023-08-12T01:56:21;56.51;28.42;72.91;;
73638;Laerm;53743;51.100;5.874;2023-08-12T01:57:22;30.35;28.49;37.98;;
73638;Laerm;53743;51.100;5.874;2023-08-12T01:58:24;30.39;28.50;35.55;;
73638;Laerm;53743;51.100;5.874;2023-08-12T01:59:27;30.47;28.27;35.47;;
73638;Laerm;53743;51.100;5.874;2023-08-12T02:00:29;29.92;28.24;34.08;;
73638;Laerm;53743;51.100;5.874;2023-08-12T02:01:30;29.66;27.45;31.58;;
73638;Laerm;53743;51.100;5.874;2023-08-12T02:02:32;55.51;28.10;71.53;;
73638;Laerm;53743;51.100;5.874;2023-08-12T02:03:33;38.41;28.79;51.89;;
73638;Laerm;53743;51.100;5.874;2023-08-12T02:04:36;30.41;27.99;36.23;;
73638;Laerm;53743;51.100;5.874;2023-08-12T02:05:38;30.37;28.29;36.91;;
73638;Laerm;53743;51.100;5.874;2023-08-12T02:06:39;29.88;28.27;45.48;;
73638;Laerm;53743;51.100;5.874;2023-08-12T02:07:41;57.60;28.90;74.06;;
73638;Laerm;53743;51.100;5.874;2023-08-12T02:08:44;57.10;29.33;72.60;;
73638;Laerm;53743;51.100;5.874;2023-08-12T02:09:46;36.25;28.57;48.10;;
73638;Laerm;53743;51.100;5.874;2023-08-12T02:10:49;31.30;28.37;41.05;;
73638;Laerm;53743;51.100;5.874;2023-08-12T02:11:51;54.07;28.48;69.62;;
73638;Laerm;53743;51.100;5.874;2023-08-12T02:12:52;29.87;28.22;33.67;;
73638;Laerm;53743;51.100;5.874;2023-08-12T02:13:54;29.70;28.07;33.52;;
73638;Laerm;53743;51.100;5.874;2023-08-12T02:14:55;54.55;28.48;70.70;;
73638;Laerm;53743;51.100;5.874;2023-08-12T02:15:58;44.20;28.39;62.54;;
73638;Laerm;53743;51.100;5.874;2023-08-12T02:16:59;29.87;27.96;41.63;;
73638;Laerm;53743;51.100;5.874;2023-08-12T02:18:02;29.93;28.08;35.38;;
73638;Laerm;53743;51.100;5.874;2023-08-12T02:19:03;31.12;28.82;51.90;;
73638;Laerm;53743;51.100;5.874;2023-08-12T02:20:07;31.46;29.03;45.35;;
73638;Laerm;53743;51.100;5.874;2023-08-12T02:21:08;56.33;29.23;75.32;;
73638;Laerm;53743;51.100;5.874;2023-08-12T02:22:11;30.26;28.24;38.33;;
73638;Laerm;53743;51.100;5.874;2023-08-12T02:23:12;30.15;28.64;35.58;;
73638;Laerm;53743;51.100;5.874;2023-08-12T02:24:14;51.44;28.86;67.32;;
73638;Laerm;53743;51.100;5.874;2023-08-12T02:25:15;30.08;28.24;33.91;;
73638;Laerm;53743;51.100;5.874;2023-08-12T02:26:19;30.07;28.31;35.61;;
73638;Laerm;53743;51.100;5.874;2023-08-12T02:27:22;29.90;28.30;40.83;;
73638;Laerm;53743;51.100;5.874;2023-08-12T02:28:25;29.94;27.73;34.96;;
73638;Laerm;53743;51.100;5.874;2023-08-12T02:29:26;30.01;28.48;33.37;;
73638;Laerm;53743;51.100;5.874;2023-08-12T02:30:29;30.35;28.72;38.78;;
73638;Laerm;53743;51.100;5.874;2023-08-12T02:31:30;53.11;28.11;69.47;;
73638;Laerm;53743;51.100;5.874;2023-08-12T02:32:32;60.51;28.36;78.15;;
73638;Laerm;53743;51.100;5.874;2023-08-12T02:33:34;29.94;27.98;39.50;;
73638;Laerm;53743;51.100;5.874;2023-08-12T02:34:37;29.60;28.10;33.99;;
73638;Laerm;53743;51.100;5.874;2023-08-12T02:35:40;29.69;28.05;36.21;;
73638;Laerm;53743;51.100;5.874;2023-08-12T02:36:41;29.50;27.85;32.30;;
73638;Laerm;53743;51.100;5.874;2023-08-12T02:37:43;29.66;28.14;31.93;;
73638;Laerm;53743;51.100;5.874;2023-08-12T02:38:44;29.64;28.05;34.59;;
73638;Laerm;53743;51.100;5.874;2023-08-12T02:39:46;52.44;28.08;68.44;;
73638;Laerm;53743;51.100;5.874;2023-08-12T02:40:48;29.99;28.16;41.20;;
73638;Laerm;53743;51.100;5.874;2023-08-12T02:41:52;29.77;28.33;35.89;;
73638;Laerm;53743;51.100;5.874;2023-08-12T02:42:53;29.71;28.28;34.94;;
73638;Laerm;53743;51.100;5.874;2023-08-12T02:43:55;59.09;28.94;73.40;;
73638;Laerm;53743;51.100;5.874;2023-08-12T02:44:56;40.99;28.08;53.32;;
73638;Laerm;53743;51.100;5.874;2023-08-12T02:46:00;59.24;28.25;76.52;;
73638;Laerm;53743;51.100;5.874;2023-08-12T02:47:01;31.10;28.06;40.82;;
73638;Laerm;53743;51.100;5.874;2023-08-12T02:48:05;29.56;28.12;32.91;;
73638;Laerm;53743;51.100;5.874;2023-08-12T02:49:06;29.67;28.18;36.37;;
73638;Laerm;53743;51.100;5.874;2023-08-12T02:50:10;30.07;28.27;35.58;;
73638;Laerm;53743;51.100;5.874;2023-08-12T02:51:12;29.61;28.02;36.11;;
73638;Laerm;53743;51.100;5.874;2023-08-12T02:52:13;30.05;27.96;38.57;;
73638;Laerm;53743;51.100;5.874;2023-08-12T02:53:17;53.75;28.31;69.45;;
73638;Laerm;53743;51.100;5.874;2023-08-12T02:54:18;55.51;28.27;71.95;;
73638;Laerm;53743;51.100;5.874;2023-08-12T02:55:20;53.01;28.35;68.64;;
73638;Laerm;53743;51.100;5.874;2023-08-12T02:56:21;30.16;27.83;35.78;;
73638;Laerm;53743;51.100;5.874;2023-08-12T02:57:25;52.57;28.83;69.74;;
73638;Laerm;53743;51.100;5.874;2023-08-12T02:58:26;29.57;28.03;32.75;;
73638;Laerm;53743;51.100;5.874;2023-08-12T02:59:28;30.00;28.47;35.71;;
73638;Laerm;53743;51.100;5.874;2023-08-12T03:00:30;59.22;27.89;76.63;;
73638;Laerm;53743;51.100;5.874;2023-08-12T03:01:32;29.33;27.96;32.90;;
73638;Laerm;53743;51.100;5.874;2023-08-12T03:02:33;53.96;28.07;68.82;;
73638;Laerm;53743;51.100;5.874;2023-08-12T03:03:36;48.59;28.83;62.69;;
73638;Laerm;53743;51.100;5.874;2023-08-12T03:04:37;52.92;28.07;69.22;;
73638;Laerm;53743;51.100;5.874;2023-08-12T03:05:39;29.56;28.00;31.48;;
73638;Laerm;53743;51.100;5.874;2023-08-12T03:06:41;29.51;27.90;31.35;;
73638;Laerm;53743;51.100;5.874;2023-08-12T03:07:43;29.84;28.28;32.82;;
73638;Laerm;53743;51.100;5.874;2023-08-12T03:08:44;29.55;28.02;34.62;;
73638;Laerm;53743;51.100;5.874;2023-08-12T03:09:47;29.43;27.97;31.97;;
73638;Laerm;53743;51.100;5.874;2023-08-12T03:10:48;55.68;28.15;72.93;;
73638;Laerm;53743;51.100;5.874;2023-08-12T03:11:51;53.10;29.70;68.63;;
73638;Laerm;53743;51.100;5.874;2023-08-12T03:12:53;33.26;28.13;44.90;;
73638;Laerm;53743;51.100;5.874;2023-08-12T03:13:56;29.56;28.09;32.61;;
73638;Laerm;53743;51.100;5.874;2023-08-12T03:14:59;29.64;27.72;36.76;;
73638;Laerm;53743;51.100;5.874;2023-08-12T03:16:02;29.43;28.19;34.74;;
73638;Laerm;53743;51.100;5.874;2023-08-12T03:17:03;50.71;28.04;67.28;;
73638;Laerm;53743;51.100;5.874;2023-08-12T03:18:07;43.36;27.94;59.90;;
73638;Laerm;53743;51.100;5.874;2023-08-12T03:19:08;29.59;27.96;39.81;;
73638;Laerm;53743;51.100;5.874;2023-08-12T03:20:12;57.02;28.18;73.18;;
73638;Laerm;53743;51.100;5.874;2023-08-12T03:21:13;36.59;28.12;52.23;;
73638;Laerm;53743;51.100;5.874;2023-08-12T03:22:16;29.66;28.00;43.43;;
73638;Laerm;53743;51.100;5.874;2023-08-12T03:23:17;30.24;27.93;34.68;;
73638;Laerm;53743;51.100;5.874;2023-08-12T03:24:19;29.38;27.56;31.95;;
73638;Laerm;53743;51.100;5.874;2023-08-12T03:25:22;29.44;27.84;33.99;;
73638;Laerm;53743;51.100;5.874;2023-08-12T03:26:23;29.36;27.84;31.07;;
73638;Laerm;53743;51.100;5.874;2023-08-12T03:27:28;29.65;27.99;34.66;;
73638;Laerm;53743;51.100;5.874;2023-08-12T03:28:31;33.66;28.41;40.71;;
73638;Laerm;53743;51.100;5.874;2023-08-12T03:29:34;32.97;27.86;41.28;;
73638;Laerm;53743;51.100;5.874;2023-08-12T03:30:36;31.50;27.91;40.34;;
73638;Laerm;53743;51.100;5.874;2023-08-12T03:31:38;60.07;28.38;78.07;;
73638;Laerm;53743;51.100;5.874;2023-08-12T03:32:39;30.33;27.98;39.26;;
73638;Laerm;53743;51.100;5.874;2023-08-12T03:33:41;70.09;31.07;87.38;;
73638;Laerm;53743;51.100;5.874;2023-08-12T03:34:43;35.07;28.12;46.88;;
73638;Laerm;53743;51.100;5.874;2023-08-12T03:35:47;29.91;27.95;47.10;;
73638;Laerm;53743;51.100;5.874;2023-08-12T03:36:49;52.86;28.81;67.30;;
73638;Laerm;53743;51.100;5.874;2023-08-12T03:37:53;40.40;28.23;53.53;;
73638;Laerm;53743;51.100;5.874;2023-08-12T03:38:55;40.35;28.79;51.50;;
73638;Laerm;53743;51.100;5.874;2023-08-12T03:40:01;31.33;28.15;39.80;;
73638;Laerm;53743;51.100;5.874;2023-08-12T03:41:02;30.26;28.15;40.18;;
73638;Laerm;53743;51.100;5.874;2023-08-12T03:42:06;29.81;28.22;37.31;;
73638;Laerm;53743;51.100;5.874;2023-08-12T03:43:09;61.85;29.22;78.86;;
73638;Laerm;53743;51.100;5.874;2023-08-12T03:44:14;30.42;28.35;37.94;;
73638;Laerm;53743;51.100;5.874;2023-08-12T03:45:15;32.56;28.79;43.51;;
73638;Laerm;53743;51.100;5.874;2023-08-12T03:46:17;56.01;28.31;71.82;;
73638;Laerm;53743;51.100;5.874;2023-08-12T03:47:18;31.01;28.50;35.84;;
73638;Laerm;53743;51.100;5.874;2023-08-12T03:48:25;31.11;28.50;42.37;;
73638;Laerm;53743;51.100;5.874;2023-08-12T03:49:26;59.94;29.80;73.05;;
73638;Laerm;53743;51.100;5.874;2023-08-12T03:50:28;40.76;28.04;53.25;;
73638;Laerm;53743;51.100;5.874;2023-08-12T03:51:29;30.14;28.24;39.90;;
73638;Laerm;53743;51.100;5.874;2023-08-12T03:52:31;55.94;28.57;73.15;;
73638;Laerm;53743;51.100;5.874;2023-08-12T03:53:32;33.23;28.84;43.62;;
73638;Laerm;53743;51.100;5.874;2023-08-12T03:54:35;59.60;29.03;73.32;;
73638;Laerm;53743;51.100;5.874;2023-08-12T03:55:36;55.04;28.79;72.21;;
73638;Laerm;53743;51.100;5.874;2023-08-12T03:56:38;29.57;27.74;36.71;;
73638;Laerm;53743;51.100;5.874;2023-08-12T03:57:39;31.97;28.31;43.62;;
73638;Laerm;53743;51.100;5.874;2023-08-12T03:58:42;34.26;28.36;47.03;;
73638;Laerm;53743;51.100;5.874;2023-08-12T03:59:45;31.68;28.42;45.91;;
73638;Laerm;53743;51.100;5.874;2023-08-12T04:00:47;31.70;28.06;41.25;;
73638;Laerm;53743;51.100;5.874;2023-08-12T04:01:50;30.53;28.58;34.95;;
73638;Laerm;53743;51.100;5.874;2023-08-12T04:02:52;53.84;29.26;69.32;;
73638;Laerm;53743;51.100;5.874;2023-08-12T04:03:53;58.36;28.92;74.82;;
73638;Laerm;53743;51.100;5.874;2023-08-12T04:04:56;52.36;29.06;66.63;;
73638;Laerm;53743;51.100;5.874;2023-08-12T04:05:57;30.79;28.23;39.91;;
73638;Laerm;53743;51.100;5.874;2023-08-12T04:06:59;48.98;28.16;65.26;;
73638;Laerm;53743;51.100;5.874;2023-08-12T04:08:01;54.63;29.42;69.17;;
73638;Laerm;53743;51.100;5.874;2023-08-12T04:09:04;31.37;28.69;37.91;;
73638;Laerm;53743;51.100;5.874;2023-08-12T04:10:07;32.30;29.22;37.79;;
73638;Laerm;53743;51.100;5.874;2023-08-12T04:11:09;37.06;28.34;51.31;;
73638;Laerm;53743;51.100;5.874;2023-08-12T04:12:10;39.06;28.94;51.02;;
73638;Laerm;53743;51.100;5.874;2023-08-12T04:13:12;36.21;28.96;50.09;;
73638;Laerm;53743;51.100;5.874;2023-08-12T04:14:14;35.20;28.55;49.54;;
73638;Laerm;53743;51.100;5.874;2023-08-12T04:15:19;35.39;28.69;49.62;;
73638;Laerm;53743;51.100;5.874;2023-08-12T04:16:20;35.47;28.88;48.82;;
73638;Laerm;53743;51.100;5.874;2023-08-12T04:17:22;34.84;28.90;46.66;;
73638;Laerm;53743;51.100;5.874;2023-08-12T04:18:24;42.90;31.36;51.80;;
73638;Laerm;53743;51.100;5.874;2023-08-12T04:19:26;54.70;32.12;71.37;;
73638;Laerm;53743;51.100;5.874;2023-08-12T04:20:27;45.02;29.95;61.99;;
73638;Laerm;53743;51.100;5.874;2023-08-12T04:21:29;54.99;30.84;68.92;;
73638;Laerm;53743;51.100;5.874;2023-08-12T04:22:30;62.07;29.56;75.80;;
73638;Laerm;53743;51.100;5.874;2023-08-12T04:23:33;55.42;30.08;71.51;;
73638;Laerm;53743;51.100;5.874;2023-08-12T04:24:34;56.45;29.97;72.47;;
73638;Laerm;53743;51.100;5.874;2023-08-12T04:25:36;59.47;29.34;74.02;;
73638;Laerm;53743;51.100;5.874;2023-08-12T04:26:37;36.05;28.66;51.33;;
73638;Laerm;53743;51.100;5.874;2023-08-12T04:27:40;36.12;29.11;47.80;;
73638;Laerm;53743;51.100;5.874;2023-08-12T04:28:42;57.00;29.36;72.67;;
73638;Laerm;53743;51.100;5.874;2023-08-12T04:29:46;32.77;28.93;46.67;;
73638;Laerm;53743;51.100;5.874;2023-08-12T04:30:50;36.25;29.59;51.27;;
73638;Laerm;53743;51.100;5.874;2023-08-12T04:31:54;56.49;31.79;73.18;;
73638;Laerm;53743;51.100;5.874;2023-08-12T04:32:55;55.64;34.82;69.33;;
73638;Laerm;53743;51.100;5.874;2023-08-12T04:33:57;34.16;29.52;49.03;;
73638;Laerm;53743;51.100;5.874;2023-08-12T04:35:00;55.20;29.96;70.46;;
73638;Laerm;53743;51.100;5.874;2023-08-12T04:36:02;52.83;30.38;68.48;;
73638;Laerm;53743;51.100;5.874;2023-08-12T04:37:04;56.30;31.35;70.24;;
73638;Laerm;53743;51.100;5.874;2023-08-12T04:38:05;40.54;30.97;56.90;;
73638;Laerm;53743;51.100;5.874;2023-08-12T04:39:11;57.76;31.86;71.99;;
73638;Laerm;53743;51.100;5.874;2023-08-12T04:40:12;33.98;30.72;46.03;;
73638;Laerm;53743;51.100;5.874;2023-08-12T04:41:15;51.95;30.94;66.27;;
73638;Laerm;53743;51.100;5.874;2023-08-12T04:42:16;35.08;31.31;44.10;;
73638;Laerm;53743;51.100;5.874;2023-08-12T04:43:20;60.87;30.52;73.08;;
73638;Laerm;53743;51.100;5.874;2023-08-12T04:44:22;59.19;33.27;77.28;;
73638;Laerm;53743;51.100;5.874;2023-08-12T04:45:24;42.70;34.72;53.90;;
73638;Laerm;53743;51.100;5.874;2023-08-12T04:46:27;54.36;36.61;71.29;;
73638;Laerm;53743;51.100;5.874;2023-08-12T04:47:29;57.85;36.40;70.65;;
73638;Laerm;53743;51.100;5.874;2023-08-12T04:48:31;55.76;37.79;71.53;;
73638;Laerm;53743;51.100;5.874;2023-08-12T04:49:35;55.00;32.57;70.83;;
73638;Laerm;53743;51.100;5.874;2023-08-12T04:50:36;63.01;32.82;76.67;;
73638;Laerm;53743;51.100;5.874;2023-08-12T04:51:39;47.22;36.85;63.39;;
73638;Laerm;53743;51.100;5.874;2023-08-12T04:52:40;54.82;33.73;69.83;;
73638;Laerm;53743;51.100;5.874;2023-08-12T04:53:41;41.28;31.74;57.60;;
73638;Laerm;53743;51.100;5.874;2023-08-12T04:54:43;53.54;30.04;67.98;;
73638;Laerm;53743;51.100;5.874;2023-08-12T04:55:44;32.63;30.14;51.10;;
73638;Laerm;53743;51.100;5.874;2023-08-12T04:56:46;58.64;29.82;73.21;;
73638;Laerm;53743;51.100;5.874;2023-08-12T04:57:48;55.04;30.51;70.93;;
73638;Laerm;53743;51.100;5.874;2023-08-12T04:58:50;50.56;31.26;63.94;;
73638;Laerm;53743;51.100;5.874;2023-08-12T04:59:51;54.05;32.24;69.75;;
73638;Laerm;53743;51.100;5.874;2023-08-12T05:00:54;33.48;29.75;45.80;;
73638;Laerm;53743;51.100;5.874;2023-08-12T05:01:58;32.78;29.76;46.71;;
73638;Laerm;53743;51.100;5.874;2023-08-12T05:03:00;33.27;30.70;39.42;;
73638;Laerm;53743;51.100;5.874;2023-08-12T05:04:01;58.40;32.15;75.38;;
73638;Laerm;53743;51.100;5.874;2023-08-12T05:05:04;59.25;35.17;72.92;;
73638;Laerm;53743;51.100;5.874;2023-08-12T05:06:08;57.60;30.22;71.27;;
73638;Laerm;53743;51.100;5.874;2023-08-12T05:07:09;32.10;29.87;41.11;;
73638;Laerm;53743;51.100;5.874;2023-08-12T05:08:12;33.48;29.62;47.01;;
73638;Laerm;53743;51.100;5.874;2023-08-12T05:09:14;57.35;33.54;72.05;;
73638;Laerm;53743;51.100;5.874;2023-08-12T05:10:17;59.89;31.82;71.26;;
73638;Laerm;53743;51.100;5.874;2023-08-12T05:11:19;51.19;31.46;68.48;;
73638;Laerm;53743;51.100;5.874;2023-08-12T05:12:21;55.28;33.71;69.43;;
73638;Laerm;53743;51.100;5.874;2023-08-12T05:13:22;57.25;31.34;73.09;;
73638;Laerm;53743;51.100;5.874;2023-08-12T05:14:25;60.18;33.52;74.21;;
73638;Laerm;53743;51.100;5.874;2023-08-12T05:15:26;60.59;34.90;75.83;;
73638;Laerm;53743;51.100;5.874;2023-08-12T05:16:29;46.02;33.04;61.44;;
73638;Laerm;53743;51.100;5.874;2023-08-12T05:17:33;60.82;35.26;72.40;;
73638;Laerm;53743;51.100;5.874;2023-08-12T05:18:35;40.70;35.65;54.37;;
73638;Laerm;53743;51.100;5.874;2023-08-12T05:19:36;39.62;35.64;60.67;;
73638;Laerm;53743;51.100;5.874;2023-08-12T05:20:39;36.99;33.37;51.52;;
73638;Laerm;53743;51.100;5.874;2023-08-12T05:21:41;66.84;33.06;80.28;;
73638;Laerm;53743;51.100;5.874;2023-08-12T05:22:42;54.13;32.85;68.30;;
73638;Laerm;53743;51.100;5.874;2023-08-12T05:23:44;59.34;34.52;72.15;;
73638;Laerm;53743;51.100;5.874;2023-08-12T05:24:45;58.68;33.54;76.91;;
73638;Laerm;53743;51.100;5.874;2023-08-12T05:25:48;58.34;34.18;73.28;;
73638;Laerm;53743;51.100;5.874;2023-08-12T05:26:49;58.34;33.33;72.54;;
73638;Laerm;53743;51.100;5.874;2023-08-12T05:27:51;57.80;37.77;70.92;;
73638;Laerm;53743;51.100;5.874;2023-08-12T05:28:52;36.77;32.79;52.09;;
73638;Laerm;53743;51.100;5.874;2023-08-12T05:29:54;40.18;33.26;63.97;;
73638;Laerm;53743;51.100;5.874;2023-08-12T05:30:55;59.36;36.54;71.23;;
73638;Laerm;53743;51.100;5.874;2023-08-12T05:31:57;55.08;34.56;70.74;;
73638;Laerm;53743;51.100;5.874;2023-08-12T05:33:00;59.42;33.60;72.83;;
73638;Laerm;53743;51.100;5.874;2023-08-12T05:34:02;36.20;32.32;45.84;;
73638;Laerm;53743;51.100;5.874;2023-08-12T05:35:04;56.28;32.77;70.43;;
73638;Laerm;53743;51.100;5.874;2023-08-12T05:36:06;34.60;31.64;50.20;;
73638;Laerm;53743;51.100;5.874;2023-08-12T05:37:09;35.71;32.27;45.86;;
73638;Laerm;53743;51.100;5.874;2023-08-12T05:38:11;58.74;31.82;74.34;;
73638;Laerm;53743;51.100;5.874;2023-08-12T05:39:12;56.19;35.16;68.43;;
73638;Laerm;53743;51.100;5.874;2023-08-12T05:40:15;61.25;40.97;72.80;;
73638;Laerm;53743;51.100;5.874;2023-08-12T05:41:16;58.45;32.82;73.22;;
73638;Laerm;53743;51.100;5.874;2023-08-12T05:42:18;61.13;32.62;77.36;;
73638;Laerm;53743;51.100;5.874;2023-08-12T05:43:19;57.00;32.82;70.33;;
73638;Laerm;53743;51.100;5.874;2023-08-12T05:44:21;55.51;32.72;69.19;;
73638;Laerm;53743;51.100;5.874;2023-08-12T05:45:22;59.12;35.21;70.07;;
73638;Laerm;53743;51.100;5.874;2023-08-12T05:46:24;40.89;34.53;53.07;;
73638;Laerm;53743;51.100;5.874;2023-08-12T05:47:26;57.35;35.03;72.73;;
73638;Laerm;53743;51.100;5.874;2023-08-12T05:48:29;63.33;42.02;75.82;;
73638;Laerm;53743;51.100;5.874;2023-08-12T05:49:30;62.31;35.74;75.46;;
73638;Laerm;53743;51.100;5.874;2023-08-12T05:50:31;60.69;35.85;73.85;;